Tikaboo Peak, Nevada Weather observations

Data are for 10 minute period ending at time listed.
 Day   Time   Solar   Ave.   Ave.  Ave.  Vector  Max.   Baro.   Total    
  of    of     Rad.   Air    Rel.  Wind   Wind   Wind  Press.  Precip.   
Year   Day            Temp.  Hum.  Speed  Dir.   Gust                    
2015   (PST)  Kw/m2    F      %     mph   deg.    mph    mb.     in.     
-------------------------------------------------------------------------
  58   15:00   0.48   38.7    52   10.9   219    21.9   748.5    0.00 
  58   15:10   0.44   38.9    53    7.9   227    15.5   748.6    0.00 
  58   15:20   0.33   38.9    52    5.0   224    10.7   748.5    0.00 
  58   15:30   0.14   37.0    52    4.1   210     9.3   748.4    0.00 
  58   15:40   0.18   36.6    53    4.8   230    11.1   748.3    0.00 
  58   15:50   0.17   36.6    53    5.2   213    11.5   748.2    0.00 
  58   16:00   0.09   36.1    55    4.1   242     9.5   748.1    0.00 
  58   16:10   0.04   35.5    56    5.5   227    10.2   748.2    0.00 
  58   16:20   0.04   35.4    55    3.9   233     9.3   748.2    0.00 
  58   16:30   0.05   35.4    54    7.1   233    14.6   748.2    0.00 
  58   16:40   0.02   34.3    58    9.0   250    15.1   748.1    0.00 
  58   16:50   0.01   34.0    58    8.5   251    15.4   748.1    0.00 
  58   17:00   0.02   33.5    67    5.1   301    17.9   748.1    0.00 
  58   17:10   0.08   32.1    76    6.4    76    15.5   748.1    0.00 
  58   17:20   0.02   28.7    92   13.2    99    16.5   747.8    0.00 
  58   17:30   0.01   31.0    73   14.4   170    23.4   747.6    0.00 
  58   17:40   0.00   32.4    65   15.2   204    22.2   747.7    0.00 
  58   17:50   0.00   32.1    65   13.6   192    24.7   747.9    0.00 
  58   18:00   0.00   32.1    65   13.6   196    21.3   748.0    0.00 
  58   18:10   0.00   31.8    71   15.2   214    23.9   748.2    0.00 
  58   18:20   0.00   30.9    80   10.4   216    22.0   748.2    0.00 
  58   18:30   0.00   29.9    82   10.1   160    13.9   748.1    0.00 
  58   18:40   0.00   29.6    83   12.0   155    18.5   747.9    0.00 
  58   18:50   0.00   29.7    78   13.1   156    18.2   747.7    0.00 
  58   19:00   0.00   29.7    76   16.3   141    21.6   747.6    0.00 
  58   19:10   0.00   29.1    80   17.8   128    20.7   747.5    0.00 
  58   19:20   0.00   29.1    79   18.5   144    24.3   747.5    0.00 
  58   19:30   0.00   29.5    75   19.7   145    22.8   747.4    0.00 
  58   19:40   0.00   29.6    74   20.8   142    24.0   747.4    0.00 
  58   19:50   0.00   29.4    74   20.6   142    24.4   747.4    0.00 
  58   20:00   0.00   29.5    74   21.0   142    24.9   747.3    0.00 
  58   20:10   0.00   29.4    74   21.1   144    24.2   747.3    0.00 
  58   20:20   0.00   29.3    75   22.6   141    25.8   747.3    0.00 
  58   20:30   0.00   29.2    76   22.4   142    25.5   747.2    0.00 
  58   20:40   0.00   29.2    75   22.5   144    27.0   747.2    0.00 
  58   20:50   0.00   29.0    76   19.5   144    25.7   747.3    0.00 
  58   21:00   0.00   29.2    76    5.3   155    14.8   747.6    0.00 
  58   21:10   0.00   29.2    80    4.1   310     9.4   747.6    0.00 
  58   21:20   0.00   28.7    85    3.7   345     6.9   747.7    0.00 
  58   21:30   0.00   28.4    86    4.8   157    14.7   747.7    0.00 
  58   21:40   0.00   28.4    82    9.2   138    14.1   747.6    0.00 
  58   21:50   0.00   28.3    81   11.3   121    17.1   747.5    0.00 
  58   22:00   0.00   28.3    80   16.3   121    19.6   747.3    0.00 
  58   22:10   0.00   28.2    80   16.1   133    19.0   747.4    0.00 
  58   22:20   0.00   28.0    82   13.8   124    16.7   747.4    0.00 
  58   22:30   0.00   27.9    83   13.7   131    17.5   747.3    0.00 
  58   22:40   0.00   27.7    86    9.6   146    16.2   747.4    0.00 
  58   22:50   0.00   27.4    90    7.6   119    13.4   747.4    0.00 
  58   23:00   0.00   26.8    96    4.2   129    10.7   747.4    0.00 
  58   23:10   0.00   26.7    98    1.5    32     4.9   747.3    0.00 
  58   23:20   0.00   26.7    98    3.1   104     6.3   747.2    0.00 
  58   23:30   0.00   26.9    99    1.7   153     4.7   747.2    0.00 
  58   23:40   0.00   27.1    99    5.1    75    12.5   747.1    0.00 
  58   23:50   0.00   27.0    99    3.3   105    12.2   747.0    0.00 
  59    0:00   0.00   26.7    99    4.0    52     7.2   746.9    0.00 
  59    0:10   0.00   26.7   100    1.0   324     3.1   747.0    0.00 
  59    0:20   0.00   26.9   100    1.1   299     2.8   747.1    0.00 
  59    0:30   0.00   27.0   100    1.6   209     5.4   747.1    0.00 
  59    0:40   0.00   26.7    99    1.9   307     4.9   747.0    0.00 
  59    0:50   0.00   26.8    99    6.6   334    10.8   747.0    0.00 
  59    1:00   0.00   26.6    99    7.1   332    12.4   747.0    0.00 
  59    1:10   0.00   26.7    99    4.6   330     8.3   747.0    0.00 
  59    1:20   0.00   26.6    99    4.6   326    10.7   746.9    0.00 
  59    1:30   0.00   26.7   100    1.3   309     5.5   746.8    0.00 
  59    1:40   0.00   26.7   100    4.9   335    12.0   746.8    0.00 
  59    1:50   0.00   26.4   100    9.1   340    13.5   746.7    0.00 
  59    2:00   0.00   26.4   100    5.1   323    11.2   746.8    0.00 
  59    2:10   0.00   26.3   100    6.4   330    12.2   746.8    0.00 
  59    2:20   0.00   25.6    99    9.9     9    13.3   746.7    0.00 
  59    2:30   0.00   25.3    99    8.0   327    12.6   746.5    0.00 
  59    2:40   0.00   25.2    99    3.4   324     8.7   746.5    0.00 
  59    2:50   0.00   25.5    99    3.6   311     8.8   746.5    0.00 
  59    3:00   0.00   25.8    99    5.4   306    11.1   746.5    0.00 
  59    3:10   0.00   25.8    99    6.9   305    13.0   746.5    0.00 
  59    3:20   0.00   25.7    99    5.1   307     9.9   746.5    0.00 
  59    3:30   0.00   25.8    99    3.3   318     9.2   746.5    0.00 
  59    3:40   0.00   25.5    99    9.4   332    18.7   746.4    0.00 
  59    3:50   0.00   25.1    99    9.1   331    18.6   746.3    0.00 
  59    4:00   0.00   25.0    99    9.7   306    19.1   746.4    0.00 
  59    4:10   0.00   25.4    99    8.6   305    15.9   746.3    0.00 
  59    4:20   0.00   25.5    98    9.6   300    14.5   746.4    0.00 
  59    4:30   0.00   25.4    98   10.6   302    16.7   746.5    0.00 
  59    4:40   0.00   25.6    98   13.2   278    17.9   746.5    0.00 
  59    4:50   0.00   25.7    99   10.3   271    15.4   746.6    0.00 
  59    5:00   0.00   25.6   100    9.7   272    15.5   746.8    0.00 
  59    5:10   0.00   25.6   100    9.2   284    13.7   746.8    0.00 
  59    5:20   0.00   25.5   100    7.0   273    12.1   746.9    0.00 
  59    5:30   0.00   25.0   100    8.2   277    16.9   746.9    0.00 
  59    5:40   0.00   24.6    99    7.7   315    11.8   746.9    0.00 
  59    5:50   0.00   24.5    99   11.1   278    15.0   746.8    0.00 
  59    6:00   0.00   24.2    98   16.1   272    21.7   746.7    0.00 
  59    6:10   0.00   24.7    99   15.1   288    20.0   746.7    0.00 
  59    6:20   0.00   24.6    99   10.4   297    18.6   746.9    0.00 
  59    6:30   0.01   24.6    99   11.0   295    15.4   746.9    0.00 
  59    6:40   0.02   24.8    99    9.2   301    12.6   747.0    0.00 
  59    6:50   0.02   24.9    99    7.5   310    11.2   747.1    0.00 
  59    7:00   0.04   25.2    99    6.6   309    10.3   747.1    0.00 
  59    7:10   0.05   25.8    99    7.5   314    11.0   747.3    0.00 
  59    7:20   0.02   25.7    99    5.1   314    10.2   747.5    0.00 
  59    7:30   0.02   25.5    99    3.5   309     7.6   747.6    0.00 
  59    7:40   0.03   25.5    99    5.8   306     9.3   747.7    0.00 
  59    7:50   0.07   25.6    99    7.5   302    12.3   747.8    0.00 
  59    8:00   0.09   26.0    99    5.2   313    10.7   747.9    0.00 
  59    8:10   0.10   27.0    99    3.3   322     7.5   748.0    0.00 
  59    8:20   0.10   27.9    99    3.3   309     7.9   748.1    0.00 
  59    8:30   0.13   28.3    99    4.8   308     9.7   748.1    0.00 
  59    8:40   0.05   27.4    97    6.6   304     9.8   748.2    0.00 
  59    8:50   0.07   26.5    97    7.6   303    11.0   748.2    0.00 
  59    9:00   0.09   26.7    96   10.8   277    14.1   748.3    0.00 
  59    9:10   0.08   26.7    95    9.2   296    12.9   748.2    0.00 
  59    9:20   0.18   27.5    97    7.0   303    10.4   748.3    0.00 
  59    9:30   0.39   32.6    93    3.3   308     8.0   748.4    0.00 
  59    9:40   0.50   35.6    81    3.3   302     8.6   748.4    0.00 
  59    9:50   0.63   36.6    77    5.4   304    12.8   748.5    0.02 
  59   10:00   0.44   34.5    75    8.6   295    13.8   748.5    0.04 
  59   10:10   0.44   31.1    85    7.2   294    14.7   748.4    0.03 
  59   10:20   0.81   35.3    77    6.1   280     8.8   748.4    0.05 
  59   10:30   0.68   36.1    76    5.2   297     9.1   748.5    0.07 
  59   10:40   0.23   31.5    86    3.4   289    13.7   748.5    0.03 
  59   10:50   0.14   28.7    96    4.8   301    12.8   748.6    0.01 
  59   11:00   0.22   28.2    99    5.1   300    11.9   748.7    0.00 
  59   11:10   0.40   29.4    99    4.3   316     7.4   748.7    0.01 
  59   11:20   0.35   30.5    94    5.7   308     8.1   748.8    0.02 
  59   11:30   0.25   29.8    91    6.9   292     8.9   748.8    0.00 
  59   11:40   0.29   30.4    91    5.2   304     7.8   748.9    0.00 
  59   11:50   0.22   30.3    86    6.4   281     8.9   748.9    0.00 
  59   12:00   0.18   28.5    91    6.5   279     9.6   749.0    0.00 
  59   12:10   0.36   29.0    91    9.2   283    13.5   748.8    0.00 
  59   12:20   0.36   29.8    89    8.6   280    13.7   748.8    0.00 
  59   12:30   0.39   29.7    91    7.1   299    13.9   748.8    0.00 
  59   12:40   0.30   29.0    95    6.8   297    13.8   748.8    0.00 
  59   12:50   0.27   29.1    97    2.9   307    12.2   748.8    0.00 
  59   13:00   0.42   29.4    97    7.2   289    11.8   749.0    0.00 
  59   13:10   0.50   31.0    94    7.3   291    12.7   748.9    0.00 
  59   13:20   0.58   31.0    92    6.4   294    11.5   748.9    0.00 
  59   13:30   0.33   31.4    89    7.6   278    11.6   748.9    0.00 
  59   13:40   0.56   30.7    92    5.8   272     9.2   749.0    0.00 
  59   13:50   0.73   33.2    86    6.3   234    11.2   749.0    0.00 
  59   14:00   0.41   33.6    84    6.2   229    11.7   749.1    0.00 
  59   14:10   0.15   31.1    88    6.7   232    12.7   749.1    0.00 
  59   14:20   0.10   28.6    93    7.3   238    12.9   749.2    0.00 
  59   14:30   0.12   27.9    96    7.4   238    12.4   749.3    0.00 
  59   14:40   0.14   27.7    98    8.8   220    15.7   749.4    0.00 
  59   14:50   0.15   26.9    99   12.3   202    19.8   749.5    0.00 

Return to Tikaboo Peak graphs page.


Western Regional Climate Center,wrcc@dri.edu